Time;durP1;ratioP1;P1;durP2;ratioP2;P2;SDS_P1;SDS_P2;PMS_P1;PMS_P2;Temp;Humidity;BMP_temperature;BMP_pressure;BME280_temperature;BME280_humidity;BME280_pressure;Samples;Min_cycle;Max_cycle;Signal;HPM_P1;HPM_P2
2023/01/01 00:01:09;;;;;;;762.87;381.07;;;;;;;;;;4945939;28;20684;-56
2023/01/01 00:03:36;;;;;;;763.07;368.13;;;;;;;;;;4950318;28;20248;-55
2023/01/01 00:06:09;;;;;;;667.10;312.33;;;;;;;;;;4970690;28;20232;-55
2023/01/01 00:08:36;;;;;;;715.47;342.30;;;;;;;;;;4960871;28;20216;-55
2023/01/01 00:11:06;;;;;;;703.97;335.07;;;;;;;;;;4969359;28;20228;-55
2023/01/01 00:13:34;;;;;;;705.40;331.93;;;;;;;;;;4967181;28;20271;-56
2023/01/01 00:16:04;;;;;;;706.43;328.27;;;;;;;;;;4965980;28;20639;-56
2023/01/01 00:18:30;;;;;;;692.30;333.77;;;;;;;;;;4963567;28;20332;-56
2023/01/01 00:21:26;;;;;;;638.40;304.63;;;;;;;;;;4962716;28;21101;-56
2023/01/01 00:23:52;;;;;;;642.03;312.23;;;;;;;;;;4963400;28;20704;-55
2023/01/01 00:26:18;;;;;;;693.07;320.67;;;;;;;;;;4983593;28;20609;-55
2023/01/01 00:28:46;;;;;;;644.43;300.83;;;;;;;;;;4980264;28;20366;-56
2023/01/01 00:31:20;;;;;;;710.10;331.63;;;;;;;;;;4971537;28;20742;-55
2023/01/01 00:33:49;;;;;;;645.73;297.67;;;;;;;;;;4977558;28;20217;-55
2023/01/01 00:36:16;;;;;;;691.23;329.03;;;;;;;;;;4973107;28;20407;-56
2023/01/01 00:38:43;;;;;;;701.90;333.80;;;;;;;;;;4981664;28;20851;-55
2023/01/01 00:41:10;;;;;;;734.07;353.07;;;;;;;;;;4969672;28;20217;-55
2023/01/01 00:43:36;;;;;;;626.73;303.50;;;;;;;;;;4978000;28;20319;-55
2023/01/01 00:46:03;;;;;;;558.97;267.37;;;;;;;;;;4970750;28;20236;-55
2023/01/01 00:48:32;;;;;;;713.40;334.50;;;;;;;;;;4978063;28;20614;-56
2023/01/01 00:50:59;;;;;;;606.77;286.03;;;;;;;;;;4957497;28;20323;-55
2023/01/01 00:53:25;;;;;;;752.90;348.50;;;;;;;;;;4966992;28;20226;-56
2023/01/01 00:55:52;;;;;;;632.33;303.73;;;;;;;;;;4962984;28;20185;-55
2023/01/01 00:58:19;;;;;;;655.63;304.27;;;;;;;;;;4965944;28;20192;-55
2023/01/01 01:00:45;;;;;;;695.77;321.90;;;;;;;;;;4963584;28;20501;-55
2023/01/01 01:03:33;;;;;;;657.50;316.47;;;;;;;;;;4979266;28;20221;-55
2023/01/01 01:06:02;;;;;;;747.47;361.20;;;;;;;;;;4969024;28;21226;-56
2023/01/01 01:08:29;;;;;;;716.10;329.17;;;;;;;;;;4974907;28;20574;-55
2023/01/01 01:10:55;;;;;;;618.63;294.87;;;;;;;;;;4970027;28;20374;-55
2023/01/01 01:13:22;;;;;;;691.20;319.33;;;;;;;;;;4962790;28;20216;-56
2023/01/01 01:15:48;;;;;;;713.30;343.43;;;;;;;;;;4962616;28;20222;-56
2023/01/01 01:18:14;;;;;;;651.87;304.73;;;;;;;;;;4970074;28;20319;-55
2023/01/01 01:20:41;;;;;;;701.03;333.85;;;;;;;;;;4966392;28;20757;-55
2023/01/01 01:23:07;;;;;;;688.23;325.87;;;;;;;;;;4972970;28;20217;-57
2023/01/01 01:25:33;;;;;;;705.37;323.87;;;;;;;;;;4975647;28;20177;-55
2023/01/01 01:28:00;;;;;;;604.37;287.90;;;;;;;;;;4969928;28;20173;-55
2023/01/01 01:30:26;;;;;;;689.83;327.50;;;;;;;;;;4966787;28;20216;-55
2023/01/01 01:32:52;;;;;;;766.57;374.30;;;;;;;;;;4977260;28;20248;-56
2023/01/01 01:35:18;;;;;;;677.03;318.97;;;;;;;;;;4967723;28;20268;-55
2023/01/01 01:37:45;;;;;;;596.10;286.88;;;;;;;;;;4974975;28;20188;-55
2023/01/01 01:40:15;;;;;;;651.20;302.23;;;;;;;;;;4967744;28;20196;-56
2023/01/01 01:42:44;;;;;;;697.73;325.40;;;;;;;;;;4958727;28;20216;-55
2023/01/01 01:45:11;;;;;;;686.53;318.00;;;;;;;;;;4982458;28;20229;-55
2023/01/01 01:47:40;;;;;;;699.93;334.90;;;;;;;;;;4984888;28;20217;-55
2023/01/01 01:50:09;;;;;;;709.10;353.03;;;;;;;;;;4972987;28;20636;-56
2023/01/01 01:52:37;;;;;;;642.73;313.40;;;;;;;;;;4971622;28;20200;-55
2023/01/01 01:55:05;;;;;;;574.33;269.43;;;;;;;;;;4975141;28;20649;-56
2023/01/01 01:57:32;;;;;;;615.37;297.13;;;;;;;;;;4980582;28;20220;-55
2023/01/01 01:59:59;;;;;;;723.00;350.10;;;;;;;;;;4974584;28;20278;-54
2023/01/01 02:02:32;;;;;;;684.90;323.23;;;;;;;;;;4963749;28;22630;-55
2023/01/01 02:04:58;;;;;;;662.27;319.23;;;;;;;;;;4952699;28;20232;-55
2023/01/01 02:07:25;;;;;;;670.03;319.90;;;;;;;;;;4957291;28;21166;-55
2023/01/01 02:09:53;;;;;;;738.00;359.47;;;;;;;;;;4969049;28;20302;-55
2023/01/01 02:12:19;;;;;;;708.57;339.73;;;;;;;;;;4963379;28;21521;-55
2023/01/01 02:14:45;;;;;;;723.03;350.57;;;;;;;;;;4957311;28;20363;-55
2023/01/01 02:17:16;;;;;;;692.93;342.63;;;;;;;;;;4959227;28;20244;-55
2023/01/01 02:19:44;;;;;;;661.23;312.77;;;;;;;;;;4970231;28;20382;-55
2023/01/01 02:22:32;;;;;;;577.20;277.83;;;;;;;;;;4972713;28;20267;-55
2023/01/01 02:24:58;;;;;;;697.43;330.83;;;;;;;;;;4965091;28;20217;-55
2023/01/01 02:27:36;;;;;;;639.43;306.30;;;;;;;;;;4969468;28;20240;-55
2023/01/01 02:30:07;;;;;;;740.63;359.30;;;;;;;;;;4969115;28;20278;-56
2023/01/01 02:32:40;;;;;;;697.53;333.90;;;;;;;;;;4961629;28;20684;-56
2023/01/01 02:37:57;;;;;;;657.88;311.25;;;;;;;;;;4962710;28;20308;-55
2023/01/01 02:40:24;;;;;;;735.60;354.53;;;;;;;;;;4957675;28;20260;-55
2023/01/01 02:42:52;;;;;;;665.07;317.47;;;;;;;;;;4958347;28;20227;-55
2023/01/01 02:45:19;;;;;;;780.10;378.57;;;;;;;;;;4956073;28;20437;-55
2023/01/01 02:47:45;;;;;;;675.57;322.53;;;;;;;;;;4955394;28;20373;-55
2023/01/01 02:50:13;;;;;;;689.97;330.03;;;;;;;;;;4954256;28;20252;-55
2023/01/01 02:52:50;;;;;;;646.07;305.03;;;;;;;;;;4962732;28;20200;-55
2023/01/01 02:55:31;;;;;;;763.10;370.57;;;;;;;;;;4964795;28;20220;-56
2023/01/01 03:01:08;;;;;;;629.17;300.77;;;;;;;;;;4961232;28;20474;-55
2023/01/01 03:03:34;;;;;;;680.20;327.37;;;;;;;;;;4960184;28;20235;-55
2023/01/01 03:06:23;;;;;;;682.67;328.47;;;;;;;;;;4966529;28;20266;-56
2023/01/01 03:08:56;;;;;;;641.03;304.70;;;;;;;;;;4960989;28;20325;-55
2023/01/01 03:11:23;;;;;;;617.80;290.30;;;;;;;;;;4954951;28;20697;-56
2023/01/01 03:13:55;;;;;;;720.80;354.23;;;;;;;;;;4959999;28;20248;-55
2023/01/01 03:16:24;;;;;;;685.08;317.38;;;;;;;;;;4956474;28;20269;-56
2023/01/01 03:19:11;;;;;;;699.03;332.70;;;;;;;;;;4962627;28;20278;-56
2023/01/01 03:21:43;;;;;;;653.27;308.57;;;;;;;;;;4964549;28;20225;-55
2023/01/01 03:24:13;;;;;;;718.60;340.37;;;;;;;;;;4947539;28;20801;-56
2023/01/01 03:26:40;;;;;;;716.83;342.33;;;;;;;;;;4956930;28;20213;-56
2023/01/01 03:29:09;;;;;;;712.30;341.73;;;;;;;;;;4968352;28;20681;-55
2023/01/01 03:31:36;;;;;;;623.45;309.05;;;;;;;;;;4947260;28;20204;-56
2023/01/01 03:34:06;;;;;;;696.23;323.83;;;;;;;;;;4962708;28;20197;-56
2023/01/01 03:36:37;;;;;;;730.03;350.17;;;;;;;;;;4959234;28;20425;-56
2023/01/01 03:39:26;;;;;;;786.20;371.83;;;;;;;;;;4960764;28;20798;-55
2023/01/01 03:41:59;;;;;;;609.00;288.97;;;;;;;;;;4968587;28;20365;-56
2023/01/01 03:44:48;;;;;;;723.03;351.90;;;;;;;;;;4964919;28;20608;-56
2023/01/01 03:47:15;;;;;;;711.27;338.40;;;;;;;;;;4959013;28;20832;-56
2023/01/01 03:49:42;;;;;;;694.60;334.23;;;;;;;;;;4970996;28;20235;-55
2023/01/01 03:52:11;;;;;;;698.40;326.80;;;;;;;;;;4965849;28;20196;-55
2023/01/01 03:54:49;;;;;;;683.80;325.57;;;;;;;;;;4963436;28;20547;-55
2023/01/01 03:57:16;;;;;;;714.27;332.40;;;;;;;;;;4960802;28;20248;-55
2023/01/01 04:00:01;;;;;;;697.27;328.13;;;;;;;;;;4963860;28;20558;-55
2023/01/01 04:02:42;;;;;;;649.27;313.60;;;;;;;;;;4967170;28;20243;-55
2023/01/01 04:05:11;;;;;;;709.43;344.27;;;;;;;;;;4964830;28;20324;-55
2023/01/01 04:07:39;;;;;;;643.73;302.00;;;;;;;;;;4956950;28;20712;-55
2023/01/01 04:10:27;;;;;;;724.43;342.40;;;;;;;;;;4969661;28;20220;-55
2023/01/01 04:12:55;;;;;;;712.37;340.93;;;;;;;;;;4964945;28;20253;-56
2023/01/01 04:15:23;;;;;;;730.87;347.43;;;;;;;;;;4968851;28;20275;-56
2023/01/01 04:17:51;;;;;;;690.77;322.50;;;;;;;;;;4972342;28;20216;-56
2023/01/01 04:20:17;;;;;;;698.97;346.03;;;;;;;;;;4955884;28;20271;-56
2023/01/01 04:22:44;;;;;;;639.77;302.77;;;;;;;;;;4973042;28;20268;-56
2023/01/01 04:25:10;;;;;;;737.17;350.57;;;;;;;;;;4977786;28;20258;-55
2023/01/01 04:27:38;;;;;;;695.80;336.77;;;;;;;;;;4968662;28;20283;-55
2023/01/01 04:30:06;;;;;;;702.47;322.87;;;;;;;;;;4961557;28;20224;-55
2023/01/01 04:32:33;;;;;;;619.53;291.83;;;;;;;;;;4965931;28;20221;-55
2023/01/01 04:35:00;;;;;;;671.27;325.27;;;;;;;;;;4947025;28;20307;-55
2023/01/01 04:37:26;;;;;;;674.67;321.07;;;;;;;;;;4973371;28;20672;-55
2023/01/01 04:39:52;;;;;;;569.80;267.17;;;;;;;;;;4964460;28;20288;-55
2023/01/01 04:42:19;;;;;;;694.10;324.87;;;;;;;;;;4963860;28;20233;-55
2023/01/01 04:44:45;;;;;;;664.10;316.43;;;;;;;;;;4963248;28;20229;-54
2023/01/01 04:47:12;;;;;;;698.47;331.07;;;;;;;;;;4952557;28;21145;-56
2023/01/01 04:49:38;;;;;;;639.47;311.00;;;;;;;;;;4967306;28;20513;-55
2023/01/01 04:52:04;;;;;;;769.23;365.53;;;;;;;;;;4971175;28;20269;-55
2023/01/01 04:54:31;;;;;;;607.30;290.70;;;;;;;;;;4961667;28;20212;-55
2023/01/01 04:56:57;;;;;;;708.60;338.67;;;;;;;;;;4958444;28;20494;-56
2023/01/01 04:59:24;;;;;;;711.03;334.17;;;;;;;;;;4964524;28;20247;-56
2023/01/01 05:01:50;;;;;;;749.63;361.57;;;;;;;;;;4960078;28;21642;-55
2023/01/01 05:04:17;;;;;;;606.17;289.53;;;;;;;;;;4973637;28;20308;-55
2023/01/01 05:06:43;;;;;;;631.60;293.97;;;;;;;;;;4964440;28;20602;-55
2023/01/01 05:09:10;;;;;;;648.60;312.00;;;;;;;;;;5010125;23;20258;-50
2023/01/01 05:11:37;;;;;;;568.23;271.77;;;;;;;;;;4992802;28;20503;-50
2023/01/01 05:14:03;;;;;;;626.87;291.47;;;;;;;;;;4985803;28;20220;-50
2023/01/01 05:16:31;;;;;;;564.17;272.17;;;;;;;;;;4985878;28;20252;-50
2023/01/01 05:18:57;;;;;;;588.27;281.30;;;;;;;;;;4986871;28;20250;-50
2023/01/01 05:21:25;;;;;;;589.87;279.37;;;;;;;;;;4986931;28;20665;-50
2023/01/01 05:23:55;;;;;;;622.27;293.17;;;;;;;;;;4988350;28;20438;-50
2023/01/01 05:26:22;;;;;;;659.73;314.23;;;;;;;;;;4987465;28;20219;-50
2023/01/01 05:28:49;;;;;;;584.17;274.93;;;;;;;;;;4993331;28;20327;-50
2023/01/01 05:31:17;;;;;;;637.63;303.67;;;;;;;;;;4989847;28;20229;-51
2023/01/01 05:33:43;;;;;;;565.37;268.77;;;;;;;;;;4990532;28;20285;-50
2023/01/01 05:36:10;;;;;;;581.47;277.17;;;;;;;;;;4988216;28;20356;-50
2023/01/01 05:38:37;;;;;;;528.80;259.77;;;;;;;;;;4989180;28;20225;-51
2023/01/01 05:41:07;;;;;;;552.10;259.27;;;;;;;;;;4972114;28;20220;-51
2023/01/01 05:43:33;;;;;;;661.87;311.27;;;;;;;;;;4990605;28;20201;-52
2023/01/01 05:46:01;;;;;;;580.03;279.77;;;;;;;;;;4986536;28;20427;-52
2023/01/01 05:48:27;;;;;;;627.07;298.37;;;;;;;;;;4988415;28;20245;-52
2023/01/01 05:50:54;;;;;;;628.87;296.90;;;;;;;;;;4984326;28;20792;-52
2023/01/01 05:53:20;;;;;;;662.70;300.93;;;;;;;;;;4990635;28;20231;-52
2023/01/01 05:55:52;;;;;;;609.20;285.40;;;;;;;;;;4987974;28;20186;-52
2023/01/01 05:58:18;;;;;;;587.47;279.27;;;;;;;;;;4992841;28;20233;-51
2023/01/01 06:00:45;;;;;;;591.83;278.47;;;;;;;;;;4990689;28;20221;-51
2023/01/01 06:03:11;;;;;;;639.93;305.87;;;;;;;;;;4985740;28;20224;-49
2023/01/01 06:05:37;;;;;;;589.77;281.27;;;;;;;;;;4969783;28;20219;-50
2023/01/01 06:08:04;;;;;;;664.63;313.43;;;;;;;;;;4988364;28;20538;-51
2023/01/01 06:10:30;;;;;;;571.97;277.37;;;;;;;;;;4969685;28;20287;-51
2023/01/01 06:12:59;;;;;;;551.00;258.27;;;;;;;;;;4989299;28;20459;-51
2023/01/01 06:15:26;;;;;;;549.63;261.57;;;;;;;;;;4984572;28;20278;-51
2023/01/01 06:17:52;;;;;;;528.87;257.80;;;;;;;;;;4973003;28;20690;-51
2023/01/01 06:20:22;;;;;;;627.13;300.43;;;;;;;;;;4989261;28;20425;-51
2023/01/01 06:22:48;;;;;;;560.23;266.07;;;;;;;;;;4984313;28;20204;-51
2023/01/01 06:25:15;;;;;;;626.57;296.07;;;;;;;;;;4988279;28;20197;-51
2023/01/01 06:27:41;;;;;;;536.10;259.80;;;;;;;;;;4989490;28;20767;-51
2023/01/01 06:30:08;;;;;;;703.13;328.03;;;;;;;;;;4989039;28;20733;-51
2023/01/01 06:32:34;;;;;;;601.10;285.90;;;;;;;;;;4988532;28;20312;-51
2023/01/01 06:35:00;;;;;;;635.50;295.40;;;;;;;;;;4989740;28;20217;-51
2023/01/01 06:37:30;;;;;;;576.37;266.97;;;;;;;;;;4993164;28;20198;-51
2023/01/01 06:39:56;;;;;;;602.70;279.63;;;;;;;;;;4982807;28;20216;-51
2023/01/01 06:42:23;;;;;;;639.83;296.80;;;;;;;;;;4986934;28;20221;-51
2023/01/01 06:44:52;;;;;;;582.10;276.50;;;;;;;;;;4987828;28;20240;-51
2023/01/01 06:47:18;;;;;;;664.43;309.90;;;;;;;;;;4987993;28;23058;-51
2023/01/01 06:49:45;;;;;;;568.33;266.17;;;;;;;;;;4986591;28;20701;-51
2023/01/01 06:52:11;;;;;;;613.70;291.50;;;;;;;;;;4987667;28;20208;-51
2023/01/01 06:54:37;;;;;;;588.37;282.67;;;;;;;;;;4972662;28;20275;-51
2023/01/01 06:57:04;;;;;;;579.93;275.80;;;;;;;;;;4988550;28;20575;-51
2023/01/01 06:59:30;;;;;;;623.43;297.73;;;;;;;;;;4975589;28;20571;-51
2023/01/01 07:01:57;;;;;;;592.20;273.27;;;;;;;;;;4986593;28;20615;-51
2023/01/01 07:04:23;;;;;;;675.90;303.80;;;;;;;;;;4986812;28;20561;-51
2023/01/01 07:06:50;;;;;;;596.87;271.47;;;;;;;;;;4986464;28;20316;-51
2023/01/01 07:09:16;;;;;;;608.10;288.00;;;;;;;;;;4983124;28;20312;-51
2023/01/01 07:11:42;;;;;;;522.60;242.97;;;;;;;;;;4986661;28;20213;-51
2023/01/01 07:14:09;;;;;;;549.37;262.27;;;;;;;;;;4985486;28;20216;-49
2023/01/01 07:16:35;;;;;;;612.00;288.43;;;;;;;;;;4989319;28;20673;-51
2023/01/01 07:19:02;;;;;;;587.43;273.10;;;;;;;;;;4995314;28;20752;-53
2023/01/01 07:21:29;;;;;;;583.43;272.53;;;;;;;;;;4988124;28;20314;-53
2023/01/01 07:23:57;;;;;;;576.03;270.90;;;;;;;;;;4996523;28;20209;-53
2023/01/01 07:26:24;;;;;;;645.27;293.63;;;;;;;;;;5000876;28;20208;-52
2023/01/01 07:28:51;;;;;;;626.13;282.40;;;;;;;;;;5001820;28;20176;-52
2023/01/01 07:31:17;;;;;;;670.83;304.07;;;;;;;;;;5002789;28;20177;-52
2023/01/01 07:33:43;;;;;;;566.20;259.43;;;;;;;;;;5002090;28;20217;-52
2023/01/01 07:36:10;;;;;;;564.17;268.50;;;;;;;;;;4999243;28;20216;-53
2023/01/01 07:38:36;;;;;;;636.80;290.30;;;;;;;;;;4981476;28;20213;-53
2023/01/01 07:41:05;;;;;;;619.10;290.23;;;;;;;;;;5001665;28;20212;-53
2023/01/01 07:43:31;;;;;;;633.20;299.83;;;;;;;;;;5000936;28;20257;-53
2023/01/01 07:46:07;;;;;;;619.23;283.13;;;;;;;;;;4990725;28;20236;-52
2023/01/01 07:48:33;;;;;;;594.72;271.13;;;;;;;;;;4989739;28;20322;-53
2023/01/01 07:50:59;;;;;;;615.33;287.73;;;;;;;;;;4996156;28;20224;-53
2023/01/01 07:53:26;;;;;;;681.13;319.80;;;;;;;;;;4995321;28;20341;-53
2023/01/01 07:55:52;;;;;;;624.00;285.07;;;;;;;;;;5001072;28;20694;-52
2023/01/01 07:58:21;;;;;;;654.90;298.60;;;;;;;;;;5001489;28;20268;-53
2023/01/01 08:00:48;;;;;;;590.60;277.27;;;;;;;;;;4999772;28;20328;-52
2023/01/01 08:03:19;;;;;;;645.20;304.10;;;;;;;;;;4981459;28;20520;-51
2023/01/01 08:05:45;;;;;;;616.57;295.57;;;;;;;;;;4983723;28;20213;-52
2023/01/01 08:08:12;;;;;;;658.07;309.30;;;;;;;;;;4999210;28;20661;-52
2023/01/01 08:10:38;;;;;;;598.37;284.70;;;;;;;;;;4984261;28;20180;-52
2023/01/01 08:13:07;;;;;;;617.27;286.47;;;;;;;;;;4999551;28;20271;-52
2023/01/01 08:15:34;;;;;;;653.60;305.47;;;;;;;;;;4998600;28;20224;-52
2023/01/01 08:18:01;;;;;;;703.17;319.03;;;;;;;;;;4998212;28;20224;-53
2023/01/01 08:20:28;;;;;;;657.37;309.50;;;;;;;;;;4999079;28;20220;-52
2023/01/01 08:22:55;;;;;;;573.97;268.40;;;;;;;;;;5000379;28;20227;-53
2023/01/01 08:25:21;;;;;;;592.27;280.47;;;;;;;;;;4998460;28;20574;-53
2023/01/01 08:27:48;;;;;;;633.07;288.53;;;;;;;;;;4999681;28;20212;-52
2023/01/01 08:30:15;;;;;;;644.27;298.57;;;;;;;;;;4998958;28;20518;-53
2023/01/01 08:32:41;;;;;;;667.73;312.27;;;;;;;;;;4998567;28;20300;-53
2023/01/01 08:35:18;;;;;;;640.47;302.50;;;;;;;;;;4999710;28;20209;-53
2023/01/01 08:37:44;;;;;;;638.30;301.23;;;;;;;;;;4997313;28;20208;-53
2023/01/01 08:40:12;;;;;;;644.30;303.03;;;;;;;;;;4983070;28;20797;-54
2023/01/01 08:42:39;;;;;;;661.53;318.87;;;;;;;;;;4999092;28;20217;-54
2023/01/01 08:45:06;;;;;;;663.47;316.00;;;;;;;;;;4983216;28;20309;-54
2023/01/01 08:47:32;;;;;;;644.53;298.90;;;;;;;;;;4997901;28;20224;-53
2023/01/01 08:49:59;;;;;;;628.03;302.33;;;;;;;;;;4991470;28;20354;-53
2023/01/01 08:52:25;;;;;;;661.50;315.13;;;;;;;;;;4963512;28;20258;-54
2023/01/01 08:54:52;;;;;;;614.57;293.03;;;;;;;;;;4976185;28;20685;-53
2023/01/01 08:57:18;;;;;;;688.87;323.13;;;;;;;;;;4980864;28;20697;-53
2023/01/01 08:59:45;;;;;;;688.30;316.47;;;;;;;;;;4980342;28;20217;-54
2023/01/01 09:02:11;;;;;;;568.67;269.57;;;;;;;;;;4961067;28;20217;-53
2023/01/01 09:04:37;;;;;;;582.63;282.57;;;;;;;;;;4978983;28;20311;-52
2023/01/01 09:07:07;;;;;;;599.43;277.70;;;;;;;;;;4980967;28;20188;-54
2023/01/01 09:09:36;;;;;;;651.47;302.97;;;;;;;;;;4967206;28;20366;-52
2023/01/01 09:12:04;;;;;;;593.17;282.83;;;;;;;;;;4988271;28;20225;-53
2023/01/01 09:14:31;;;;;;;670.10;318.20;;;;;;;;;;4997831;28;20566;-52
2023/01/01 09:16:57;;;;;;;607.43;284.40;;;;;;;;;;4998078;28;20772;-52
2023/01/01 09:19:24;;;;;;;583.20;281.87;;;;;;;;;;4999133;28;20447;-53
2023/01/01 09:21:50;;;;;;;561.47;272.77;;;;;;;;;;4999007;28;20224;-51
2023/01/01 09:24:16;;;;;;;610.83;282.20;;;;;;;;;;4995295;28;20376;-51
2023/01/01 09:26:43;;;;;;;698.60;333.13;;;;;;;;;;5000121;28;20328;-51
2023/01/01 09:29:09;;;;;;;659.80;302.33;;;;;;;;;;4995873;28;20209;-51
2023/01/01 09:31:35;;;;;;;720.47;340.83;;;;;;;;;;4986077;28;20265;-51
2023/01/01 09:34:01;;;;;;;652.33;303.83;;;;;;;;;;4979731;28;20187;-51
2023/01/01 09:36:29;;;;;;;711.10;330.67;;;;;;;;;;4977386;28;20348;-55
2023/01/01 09:38:56;;;;;;;658.23;317.33;;;;;;;;;;4969687;28;20276;-53
2023/01/01 09:41:29;;;;;;;627.00;294.27;;;;;;;;;;4987378;28;20629;-53
2023/01/01 09:43:55;;;;;;;619.83;298.70;;;;;;;;;;4982186;28;20244;-53
2023/01/01 09:46:24;;;;;;;667.07;309.17;;;;;;;;;;4991033;28;20204;-52
2023/01/01 09:48:55;;;;;;;738.57;341.43;;;;;;;;;;4996846;28;20570;-53
2023/01/01 09:51:22;;;;;;;726.40;335.77;;;;;;;;;;4998387;28;20267;-52
2023/01/01 09:53:53;;;;;;;747.23;349.67;;;;;;;;;;4980867;28;20318;-53
2023/01/01 09:56:25;;;;;;;578.77;275.47;;;;;;;;;;4984768;28;20280;-52
2023/01/01 09:58:52;;;;;;;614.23;285.10;;;;;;;;;;4996834;28;20519;-53
2023/01/01 10:01:36;;;;;;;660.90;314.00;;;;;;;;;;4993247;28;20271;-53
2023/01/01 10:04:35;;;;;;;677.47;327.23;;;;;;;;;;4997818;28;20292;-53
2023/01/01 10:07:04;;;;;;;692.77;330.37;;;;;;;;;;4975534;28;20230;-53
2023/01/01 10:09:35;;;;;;;683.73;320.00;;;;;;;;;;4989630;28;20762;-53
2023/01/01 10:12:06;;;;;;;695.50;327.67;;;;;;;;;;4977437;28;20263;-52
2023/01/01 10:14:35;;;;;;;641.60;300.73;;;;;;;;;;4993038;28;20220;-52
2023/01/01 10:17:06;;;;;;;630.67;299.80;;;;;;;;;;4992214;28;20271;-52
2023/01/01 10:19:39;;;;;;;628.77;299.27;;;;;;;;;;4981005;28;20606;-52
2023/01/01 10:22:23;;;;;;;726.70;337.63;;;;;;;;;;4980336;28;20262;-53
2023/01/01 10:24:49;;;;;;;658.97;301.00;;;;;;;;;;4989882;28;20751;-53
2023/01/01 10:27:24;;;;;;;840.27;384.13;;;;;;;;;;4990249;28;20804;-57
2023/01/01 10:29:51;;;;;;;661.77;302.13;;;;;;;;;;4970872;28;20307;-57
2023/01/01 10:32:25;;;;;;;783.10;374.60;;;;;;;;;;4973919;28;20355;-59
2023/01/01 10:34:51;;;;;;;870.57;408.43;;;;;;;;;;4972398;28;20226;-57
2023/01/01 10:37:18;;;;;;;902.20;424.17;;;;;;;;;;4952392;28;20228;-52
2023/01/01 10:39:45;;;;;;;633.33;298.20;;;;;;;;;;4995418;28;20225;-52
2023/01/01 10:42:13;;;;;;;639.70;298.57;;;;;;;;;;4996258;28;20221;-52
2023/01/01 10:44:39;;;;;;;768.67;350.80;;;;;;;;;;4995780;28;20304;-51
2023/01/01 10:47:23;;;;;;;700.43;331.33;;;;;;;;;;4995164;28;20261;-52
2023/01/01 10:49:56;;;;;;;262.77;147.00;;;;;;;;;;4997960;28;20389;-52
2023/01/01 10:52:27;;;;;;;267.77;144.60;;;;;;;;;;5006409;28;20199;-52
2023/01/01 10:54:53;;;;;;;262.93;145.67;;;;;;;;;;5005544;28;20236;-51
2023/01/01 10:57:25;;;;;;;290.67;158.53;;;;;;;;;;5006090;28;20621;-52
2023/01/01 10:59:51;;;;;;;286.23;154.50;;;;;;;;;;5005676;28;20303;-52
2023/01/01 11:02:21;;;;;;;293.67;158.90;;;;;;;;;;5006304;28;20319;-52
2023/01/01 11:04:48;;;;;;;298.77;166.30;;;;;;;;;;5005243;28;20251;-52
2023/01/01 11:07:19;;;;;;;237.32;138.77;;;;;;;;;;5006558;28;20173;-52
2023/01/01 11:09:48;;;;;;;349.90;176.57;;;;;;;;;;5015171;23;20319;-56
2023/01/01 11:12:21;;;;;;;887.80;376.40;;;;;;;;;;4968519;28;20270;-57
2023/01/01 11:14:50;;;;;;;808.60;351.70;;;;;;;;;;4978778;28;20209;-59
2023/01/01 11:17:24;;;;;;;754.33;330.20;;;;;;;;;;4980140;28;20224;-55
2023/01/01 11:19:51;;;;;;;866.83;377.33;;;;;;;;;;4959596;28;20184;-56
2023/01/01 11:22:36;;;;;;;809.43;364.50;;;;;;;;;;4970485;28;20217;-57
2023/01/01 11:25:02;;;;;;;851.43;355.63;;;;;;;;;;4978108;28;20233;-57
2023/01/01 11:27:28;;;;;;;835.37;360.87;;;;;;;;;;4955735;28;20265;-57
2023/01/01 11:30:19;;;;;;;869.88;384.45;;;;;;;;;;4971295;28;20972;-57
2023/01/01 11:32:45;;;;;;;747.85;321.65;;;;;;;;;;4964507;28;20311;-54
2023/01/01 11:35:17;;;;;;;634.00;292.47;;;;;;;;;;4998030;28;20217;-54
2023/01/01 11:37:44;;;;;;;657.55;282.13;;;;;;;;;;4997107;28;20350;-56
2023/01/01 11:40:18;;;;;;;684.90;295.27;;;;;;;;;;4999277;28;20196;-55
2023/01/01 11:42:46;;;;;;;768.13;329.60;;;;;;;;;;4997297;28;20224;-55
2023/01/01 11:45:21;;;;;;;801.53;338.03;;;;;;;;;;4996221;28;20279;-56
2023/01/01 11:47:57;;;;;;;814.90;347.53;;;;;;;;;;4995951;28;20219;-54
2023/01/01 11:50:33;;;;;;;674.60;292.40;;;;;;;;;;4997535;28;20287;-54
2023/01/01 11:53:17;;;;;;;826.63;355.07;;;;;;;;;;4995735;28;20720;-52
2023/01/01 11:55:46;;;;;;;720.00;299.23;;;;;;;;;;4997250;28;20177;-51
2023/01/01 11:58:18;;;;;;;774.03;325.43;;;;;;;;;;4997366;28;20208;-52
2023/01/01 12:00:45;;;;;;;707.07;298.10;;;;;;;;;;4999927;28;20228;-53
2023/01/01 12:03:16;;;;;;;755.90;317.53;;;;;;;;;;4998307;28;20962;-53
2023/01/01 12:05:45;;;;;;;694.47;295.00;;;;;;;;;;5000769;28;20221;-54
2023/01/01 12:08:15;;;;;;;724.10;309.43;;;;;;;;;;5001753;28;20213;-53
2023/01/01 12:10:47;;;;;;;737.37;314.73;;;;;;;;;;4999822;28;20237;-53
2023/01/01 12:13:18;;;;;;;714.23;300.17;;;;;;;;;;5002538;28;20238;-52
2023/01/01 12:15:44;;;;;;;663.43;288.50;;;;;;;;;;5001177;28;20261;-53
2023/01/01 12:18:18;;;;;;;716.80;298.10;;;;;;;;;;4999978;28;20213;-53
2023/01/01 12:20:49;;;;;;;771.90;316.77;;;;;;;;;;5000631;28;20209;-54
2023/01/01 12:23:16;;;;;;;801.83;335.00;;;;;;;;;;4998884;28;20217;-54
2023/01/01 12:25:44;;;;;;;786.97;327.13;;;;;;;;;;5001172;28;20181;-53
2023/01/01 12:28:16;;;;;;;817.03;344.70;;;;;;;;;;4998274;28;20343;-54
2023/01/01 12:30:42;;;;;;;776.23;318.10;;;;;;;;;;4975739;28;20219;-53
2023/01/01 12:33:20;;;;;;;732.33;290.80;;;;;;;;;;4998837;28;20310;-53
2023/01/01 12:35:52;;;;;;;680.00;282.77;;;;;;;;;;4998309;28;20555;-53
2023/01/01 12:38:37;;;;;;;747.43;317.00;;;;;;;;;;4998364;28;20213;-52
2023/01/01 12:41:06;;;;;;;758.67;321.10;;;;;;;;;;5000626;28;20205;-53
2023/01/01 12:43:42;;;;;;;697.70;294.40;;;;;;;;;;4999962;28;20184;-52
2023/01/01 12:46:20;;;;;;;727.10;298.00;;;;;;;;;;4999355;28;20196;-55
2023/01/01 12:48:51;;;;;;;770.63;323.40;;;;;;;;;;4998707;28;20291;-53
2023/01/01 12:51:32;;;;;;;738.17;315.73;;;;;;;;;;5000180;28;20271;-53
2023/01/01 12:54:01;;;;;;;763.07;336.03;;;;;;;;;;5000586;28;20279;-53
2023/01/01 12:56:54;;;;;;;714.13;299.57;;;;;;;;;;4998983;28;20597;-53
2023/01/01 12:59:22;;;;;;;819.13;331.93;;;;;;;;;;4983001;28;20225;-53
2023/01/01 13:01:49;;;;;;;723.83;316.00;;;;;;;;;;4999385;28;20212;-53
2023/01/01 13:04:17;;;;;;;764.17;327.00;;;;;;;;;;5001343;28;20347;-53
2023/01/01 13:06:46;;;;;;;744.00;311.07;;;;;;;;;;5001321;28;20303;-53
2023/01/01 13:09:23;;;;;;;684.73;307.87;;;;;;;;;;4999919;28;20232;-54
2023/01/01 13:11:53;;;;;;;771.37;331.67;;;;;;;;;;4999526;28;20224;-53
2023/01/01 13:14:19;;;;;;;719.22;313.83;;;;;;;;;;5000500;28;20232;-53
2023/01/01 13:16:49;;;;;;;798.37;327.87;;;;;;;;;;4999901;28;20181;-53
2023/01/01 13:19:26;;;;;;;813.67;352.00;;;;;;;;;;5000585;28;20742;-53
2023/01/01 13:21:52;;;;;;;749.27;311.53;;;;;;;;;;5000523;28;20562;-53
2023/01/01 13:24:23;;;;;;;789.17;340.97;;;;;;;;;;4996202;28;20589;-54
2023/01/01 13:26:49;;;;;;;739.03;315.87;;;;;;;;;;5000824;28;20237;-53
2023/01/01 13:29:15;;;;;;;775.17;319.65;;;;;;;;;;4982844;28;20308;-54
2023/01/01 13:31:42;;;;;;;678.23;285.67;;;;;;;;;;5000635;28;20278;-53
2023/01/01 13:34:26;;;;;;;787.40;324.83;;;;;;;;;;4999953;28;20200;-53
2023/01/01 13:37:12;;;;;;;815.13;334.92;;;;;;;;;;4998595;28;20224;-52
2023/01/01 13:39:53;;;;;;;782.77;338.67;;;;;;;;;;4998008;28;20552;-53
2023/01/01 13:42:38;;;;;;;748.70;309.20;;;;;;;;;;5000587;28;20370;-53
2023/01/01 13:45:07;;;;;;;809.20;339.53;;;;;;;;;;4997745;28;20228;-53
2023/01/01 13:47:39;;;;;;;731.60;309.60;;;;;;;;;;4998356;28;20613;-53
2023/01/01 13:50:26;;;;;;;750.27;308.27;;;;;;;;;;4998870;28;20216;-53
2023/01/01 13:53:05;;;;;;;789.57;347.37;;;;;;;;;;4998625;28;20228;-53
2023/01/01 13:55:50;;;;;;;776.10;330.35;;;;;;;;;;5000618;28;20157;-53
2023/01/01 13:58:22;;;;;;;838.23;351.80;;;;;;;;;;4999621;28;20666;-53
2023/01/01 14:00:48;;;;;;;702.63;302.33;;;;;;;;;;4998336;28;20232;-53
2023/01/01 14:03:16;;;;;;;755.97;330.33;;;;;;;;;;4997555;28;20217;-53
2023/01/01 14:05:48;;;;;;;785.53;318.67;;;;;;;;;;4998130;28;20340;-53
2023/01/01 14:08:28;;;;;;;772.97;327.80;;;;;;;;;;4998592;28;20339;-53
2023/01/01 14:10:54;;;;;;;673.27;289.83;;;;;;;;;;5000300;28;20527;-53